Time;durP1;ratioP1;P1;durP2;ratioP2;P2;SDS_P1;SDS_P2;PMS_P1;PMS_P2;Temp;Humidity;BMP_temperature;BMP_pressure;BME280_temperature;BME280_humidity;BME280_pressure;Samples;Min_cycle;Max_cycle;Signal;HPM_P1;HPM_P2
2021/10/27 00:00:38;;;;;;;6.60;4.30;;;3.40;99.80;;;;;;2081279;28;20206;-67
2021/10/27 00:01:42;;;;;;;7.27;4.77;;;3.40;99.70;;;;;;2081253;28;20191;-67
2021/10/27 00:02:43;;;;;;;7.57;4.65;;;3.30;99.50;;;;;;2081352;28;20183;-67
2021/10/27 00:03:43;;;;;;;8.63;5.07;;;3.30;99.50;;;;;;2081553;28;20532;-67
2021/10/27 00:04:44;;;;;;;4.83;3.90;;;3.30;99.30;;;;;;2081458;28;20182;-67
2021/10/27 00:05:45;;;;;;;6.27;4.33;;;3.20;99.10;;;;;;2081464;28;20176;-67
2021/10/27 00:06:45;;;;;;;6.83;4.13;;;3.20;99.10;;;;;;2081398;28;20201;-67
2021/10/27 00:07:46;;;;;;;6.13;4.37;;;3.20;99.00;;;;;;2081434;28;20189;-67
2021/10/27 00:08:49;;;;;;;6.77;4.00;;;3.20;99.00;;;;;;2081388;28;20185;-67
2021/10/27 00:09:50;;;;;;;5.80;4.30;;;3.20;99.00;;;;;;2081548;28;20178;-67
2021/10/27 00:10:51;;;;;;;6.73;4.63;;;3.10;99.00;;;;;;2081400;28;20214;-67
2021/10/27 00:11:52;;;;;;;7.32;4.45;;;3.10;98.90;;;;;;2080865;28;20666;-67
2021/10/27 00:12:52;;;;;;;6.90;4.33;;;3.10;99.00;;;;;;2081281;28;20204;-67
2021/10/27 00:13:53;;;;;;;5.37;4.43;;;3.10;99.10;;;;;;2080911;28;20708;-67
2021/10/27 00:14:55;;;;;;;6.87;4.83;;;3.10;99.20;;;;;;2080775;28;20178;-67
2021/10/27 00:15:56;;;;;;;5.97;4.57;;;3.10;99.30;;;;;;2081463;28;20175;-67
2021/10/27 00:16:56;;;;;;;6.67;4.67;;;3.10;99.50;;;;;;2081397;28;20629;-67
2021/10/27 00:17:57;;;;;;;6.17;4.40;;;3.10;99.50;;;;;;2081423;28;20175;-67
2021/10/27 00:18:58;;;;;;;5.10;4.13;;;3.10;99.40;;;;;;2081261;28;20604;-67
2021/10/27 00:19:59;;;;;;;10.60;4.60;;;3.10;99.30;;;;;;2081421;28;20233;-67
2021/10/27 00:20:59;;;;;;;9.57;4.87;;;3.10;99.30;;;;;;2081132;28;20245;-67
2021/10/27 00:22:00;;;;;;;7.00;4.77;;;3.10;99.20;;;;;;2081303;28;20187;-67
2021/10/27 00:23:01;;;;;;;7.63;4.50;;;3.00;99.10;;;;;;2081375;28;20177;-67
2021/10/27 00:24:02;;;;;;;6.17;4.33;;;3.00;99.00;;;;;;2081306;28;20175;-67
2021/10/27 00:25:03;;;;;;;5.25;4.03;;;3.10;99.00;;;;;;2081211;28;20210;-67
2021/10/27 00:26:04;;;;;;;9.82;4.70;;;3.00;99.00;;;;;;2080724;28;20197;-67
2021/10/27 00:27:07;;;;;;;4.80;3.60;;;3.00;98.90;;;;;;2080631;28;20704;-67
2021/10/27 00:28:07;;;;;;;6.18;4.32;;;3.00;98.80;;;;;;2081316;28;20174;-67
2021/10/27 00:29:08;;;;;;;6.93;3.50;;;3.00;98.90;;;;;;2081100;28;20175;-67
2021/10/27 00:30:10;;;;;;;8.37;4.00;;;3.00;98.90;;;;;;2081427;28;20229;-67
2021/10/27 00:31:11;;;;;;;6.38;3.72;;;3.00;98.90;;;;;;2080473;28;20187;-67
2021/10/27 00:32:11;;;;;;;5.40;3.40;;;2.90;98.80;;;;;;2080817;28;20187;-67
2021/10/27 00:33:12;;;;;;;5.53;3.80;;;2.90;98.80;;;;;;2081430;28;20649;-67
2021/10/27 00:34:13;;;;;;;5.63;3.70;;;2.90;98.90;;;;;;2081367;28;20190;-67
2021/10/27 00:35:14;;;;;;;7.00;3.97;;;2.90;99.00;;;;;;2081206;28;20673;-67
2021/10/27 00:36:15;;;;;;;6.13;3.90;;;2.90;99.00;;;;;;2081055;28;20206;-67
2021/10/27 00:37:16;;;;;;;6.25;4.10;;;2.90;99.10;;;;;;2081331;28;20175;-67
2021/10/27 00:38:16;;;;;;;6.93;4.40;;;2.90;98.90;;;;;;2081337;28;20664;-67
2021/10/27 00:39:17;;;;;;;6.93;4.20;;;2.90;98.90;;;;;;2081394;28;20186;-67
2021/10/27 00:40:18;;;;;;;6.00;4.17;;;2.90;99.00;;;;;;2081202;28;20197;-67
2021/10/27 00:41:19;;;;;;;6.57;4.37;;;2.90;99.20;;;;;;2081025;28;20175;-68
2021/10/27 00:42:20;;;;;;;6.68;4.38;;;2.90;99.30;;;;;;2081238;28;20205;-67
2021/10/27 00:43:21;;;;;;;5.83;4.23;;;2.90;99.50;;;;;;2081247;28;20182;-67
2021/10/27 00:44:24;;;;;;;8.55;4.63;;;2.90;99.50;;;;;;2081249;28;20649;-67
2021/10/27 00:45:25;;;;;;;5.80;4.00;;;2.90;99.50;;;;;;2081215;28;20688;-67
2021/10/27 00:46:26;;;;;;;7.57;4.53;;;2.90;99.30;;;;;;2081168;28;20178;-67
2021/10/27 00:47:27;;;;;;;6.68;4.35;;;2.90;99.20;;;;;;2080641;28;20673;-67
2021/10/27 00:48:28;;;;;;;8.55;4.70;;;2.80;99.20;;;;;;2080562;28;20215;-67
2021/10/27 00:49:31;;;;;;;5.22;4.07;;;2.80;99.20;;;;;;2081309;28;20176;-67
2021/10/27 00:50:33;;;;;;;5.32;4.22;;;2.80;99.30;;;;;;2080950;28;20236;-67
2021/10/27 00:51:33;;;;;;;8.23;4.15;;;2.80;99.30;;;;;;2080903;28;20217;-67
2021/10/27 00:52:34;;;;;;;5.43;3.73;;;2.80;99.20;;;;;;2081191;28;20208;-67
2021/10/27 00:53:36;;;;;;;6.53;4.10;;;2.80;99.20;;;;;;2081189;28;20181;-67
2021/10/27 00:54:39;;;;;;;6.90;4.38;;;2.80;99.10;;;;;;2081209;28;20934;-67
2021/10/27 00:55:40;;;;;;;4.32;3.78;;;2.80;99.20;;;;;;2081154;28;20232;-67
2021/10/27 00:56:41;;;;;;;6.77;3.83;;;2.80;99.30;;;;;;2080956;28;20237;-67
2021/10/27 00:57:43;;;;;;;7.38;4.22;;;2.80;99.30;;;;;;2080657;28;20237;-67
2021/10/27 00:58:45;;;;;;;7.18;4.40;;;2.80;99.20;;;;;;2080558;28;20530;-67
2021/10/27 00:59:47;;;;;;;5.38;3.80;;;2.80;99.10;;;;;;2080340;28;20179;-67
2021/10/27 01:00:48;;;;;;;5.15;3.95;;;2.70;98.90;;;;;;2072455;28;20182;-66
2021/10/27 01:01:50;;;;;;;5.38;3.60;;;2.70;98.80;;;;;;2080390;28;20196;-67
2021/10/27 01:02:52;;;;;;;5.45;3.70;;;2.70;99.00;;;;;;2080513;28;20280;-67
2021/10/27 01:03:53;;;;;;;6.60;4.15;;;2.70;99.10;;;;;;2080733;28;20528;-67
2021/10/27 01:04:53;;;;;;;6.93;4.00;;;2.70;99.30;;;;;;2081220;28;20191;-67
2021/10/27 01:05:54;;;;;;;8.57;4.10;;;2.70;99.50;;;;;;2081195;28;20554;-67
2021/10/27 01:06:57;;;;;;;4.90;3.67;;;2.70;99.70;;;;;;2081149;28;20629;-67
2021/10/27 01:07:58;;;;;;;5.82;3.65;;;2.70;99.70;;;;;;2081202;28;20249;-67
2021/10/27 01:08:59;;;;;;;5.03;3.60;;;2.70;99.70;;;;;;2081140;28;20219;-67
2021/10/27 01:10:00;;;;;;;5.03;3.53;;;2.70;99.60;;;;;;2081144;28;20177;-67
2021/10/27 01:11:03;;;;;;;4.95;3.50;;;2.70;99.40;;;;;;2081010;28;20185;-67
2021/10/27 01:12:05;;;;;;;4.93;3.67;;;2.70;99.30;;;;;;2080510;28;20185;-67
2021/10/27 01:13:06;;;;;;;6.80;3.58;;;2.70;99.20;;;;;;2080479;28;20189;-67
2021/10/27 01:14:09;;;;;;;5.20;3.63;;;2.70;99.20;;;;;;2081151;28;20195;-67
2021/10/27 01:15:10;;;;;;;5.80;3.45;;;2.60;99.20;;;;;;2080463;28;20554;-67
2021/10/27 01:16:10;;;;;;;4.93;3.70;;;2.70;99.30;;;;;;2080343;28;20193;-67
2021/10/27 01:17:15;;;;;;;6.40;3.43;;;2.70;99.40;;;;;;2081062;28;20593;-67
2021/10/27 01:18:15;;;;;;;7.20;4.07;;;2.60;99.60;;;;;;2081298;28;20205;-67
2021/10/27 01:19:16;;;;;;;7.57;4.07;;;2.60;99.60;;;;;;2081022;28;20188;-67
2021/10/27 01:20:17;;;;;;;6.70;3.80;;;2.60;99.60;;;;;;2081238;28;20214;-67
2021/10/27 01:21:22;;;;;;;7.07;4.28;;;2.60;99.60;;;;;;2080818;28;20291;-67
2021/10/27 01:22:30;;;;;;;6.43;4.30;;;2.70;99.70;;;;;;2080350;28;20181;-67
2021/10/27 01:23:30;;;;;;;6.45;4.30;;;2.70;99.80;;;;;;2073415;28;20217;-67
2021/10/27 01:24:31;;;;;;;7.40;3.97;;;2.70;99.70;;;;;;2082080;28;20174;-67
2021/10/27 01:25:32;;;;;;;7.50;4.10;;;2.70;99.50;;;;;;2082750;28;20695;-67
2021/10/27 01:26:34;;;;;;;7.93;3.87;;;2.60;99.30;;;;;;2082700;28;20216;-67
2021/10/27 01:27:45;;;;;;;7.30;4.10;;;2.70;99.30;;;;;;2082711;28;20182;-67
2021/10/27 01:28:45;;;;;;;7.03;3.70;;;2.60;99.20;;;;;;2082095;28;20185;-67
2021/10/27 01:29:47;;;;;;;5.03;3.87;;;2.60;99.30;;;;;;2082138;28;20185;-67
2021/10/27 01:30:47;;;;;;;5.57;3.72;;;2.60;99.30;;;;;;2082710;28;20186;-67
2021/10/27 01:31:48;;;;;;;7.03;3.73;;;2.70;99.30;;;;;;2082467;28;20210;-67
2021/10/27 01:32:51;;;;;;;7.30;3.73;;;2.60;99.30;;;;;;2082660;28;20307;-67
2021/10/27 01:33:52;;;;;;;6.53;4.13;;;2.60;99.30;;;;;;2081929;28;20606;-67
2021/10/27 01:34:54;;;;;;;11.13;4.57;;;2.60;99.30;;;;;;2082000;28;20219;-67
2021/10/27 01:35:55;;;;;;;5.07;3.85;;;2.60;99.40;;;;;;2082056;28;20178;-67
2021/10/27 01:36:55;;;;;;;6.47;3.83;;;2.60;99.60;;;;;;2082030;28;20220;-67
2021/10/27 01:37:56;;;;;;;6.90;4.50;;;2.60;99.60;;;;;;2082628;28;20278;-67
2021/10/27 01:38:57;;;;;;;7.03;4.60;;;2.60;99.70;;;;;;2082792;28;20265;-67
2021/10/27 01:39:58;;;;;;;7.05;4.85;;;2.60;99.90;;;;;;2082004;28;20182;-67
2021/10/27 01:40:59;;;;;;;7.93;5.03;;;2.70;99.90;;;;;;2082000;28;20698;-67
2021/10/27 01:42:00;;;;;;;6.40;4.47;;;2.60;99.90;;;;;;2082492;28;20670;-67
2021/10/27 01:43:00;;;;;;;7.60;4.87;;;2.60;99.90;;;;;;2082624;28;20919;-67
2021/10/27 01:44:01;;;;;;;8.17;4.90;;;2.60;99.90;;;;;;2082513;28;20180;-67
2021/10/27 01:45:04;;;;;;;5.00;3.50;;;2.60;99.90;;;;;;2082699;28;20178;-67
2021/10/27 01:46:05;;;;;;;5.55;4.22;;;2.70;99.90;;;;;;2082101;28;20178;-67
2021/10/27 01:47:06;;;;;;;4.87;3.80;;;2.60;99.90;;;;;;2081982;28;20238;-67
2021/10/27 01:48:08;;;;;;;6.20;4.05;;;2.60;99.90;;;;;;2081885;28;20181;-67
2021/10/27 01:49:11;;;;;;;5.68;4.20;;;2.70;99.90;;;;;;2081880;28;20186;-67
2021/10/27 01:50:13;;;;;;;8.65;4.40;;;2.60;99.90;;;;;;2081840;28;20189;-67
2021/10/27 01:51:14;;;;;;;5.18;3.97;;;2.60;99.90;;;;;;2081770;28;20238;-67
2021/10/27 01:52:16;;;;;;;4.87;3.70;;;2.60;99.90;;;;;;2081877;28;20248;-67
2021/10/27 01:53:17;;;;;;;9.40;5.28;;;2.50;99.90;;;;;;2082031;28;20276;-67
2021/10/27 01:54:18;;;;;;;6.73;4.20;;;2.60;99.90;;;;;;2082502;28;20756;-67
2021/10/27 01:55:18;;;;;;;8.53;4.13;;;2.50;99.90;;;;;;2082570;28;20174;-67
2021/10/27 01:56:20;;;;;;;6.27;4.27;;;2.50;99.90;;;;;;2082455;28;20231;-67
2021/10/27 01:57:22;;;;;;;7.20;4.15;;;2.50;99.90;;;;;;2081785;28;20172;-67
2021/10/27 01:58:22;;;;;;;6.18;4.05;;;2.50;99.90;;;;;;2081963;28;20181;-67
2021/10/27 01:59:24;;;;;;;9.73;4.10;;;2.50;99.90;;;;;;2082496;28;20680;-67
2021/10/27 02:00:25;;;;;;;7.47;3.95;;;2.50;99.90;;;;;;2082426;28;20184;-67
2021/10/27 02:01:25;;;;;;;5.67;4.13;;;2.60;99.90;;;;;;2082204;28;20287;-67
2021/10/27 02:02:26;;;;;;;6.17;4.13;;;2.50;99.90;;;;;;2082572;28;20254;-67
2021/10/27 02:03:27;;;;;;;5.93;3.80;;;2.60;99.90;;;;;;2082524;28;20219;-67
2021/10/27 02:04:27;;;;;;;5.23;3.53;;;2.60;99.90;;;;;;2081844;28;20180;-67
2021/10/27 02:05:28;;;;;;;6.63;4.27;;;2.60;99.90;;;;;;2081801;28;20177;-67
2021/10/27 02:06:29;;;;;;;7.63;4.10;;;2.60;99.90;;;;;;2082556;28;20663;-67
2021/10/27 02:07:29;;;;;;;6.73;3.97;;;2.50;99.80;;;;;;2082231;28;20185;-67
2021/10/27 02:08:30;;;;;;;6.53;4.20;;;2.50;99.70;;;;;;2082467;28;20617;-67
2021/10/27 02:09:31;;;;;;;8.53;4.73;;;2.50;99.60;;;;;;2082336;28;20613;-67
2021/10/27 02:10:32;;;;;;;5.22;4.07;;;2.50;99.60;;;;;;2082450;28;20211;-67
2021/10/27 02:11:33;;;;;;;5.73;4.00;;;2.50;99.60;;;;;;2082349;28;20192;-67
2021/10/27 02:12:36;;;;;;;6.10;4.10;;;2.50;99.60;;;;;;2082469;28;20260;-67
2021/10/27 02:13:37;;;;;;;3.95;3.28;;;2.50;99.60;;;;;;2081783;28;20199;-67
2021/10/27 02:14:38;;;;;;;4.47;3.50;;;2.50;99.60;;;;;;2080272;28;20621;-67
2021/10/27 02:15:39;;;;;;;6.15;3.75;;;2.50;99.70;;;;;;2082300;28;20219;-67
2021/10/27 02:16:39;;;;;;;6.37;3.83;;;2.40;99.70;;;;;;2082067;28;20228;-67
2021/10/27 02:17:40;;;;;;;7.17;3.70;;;2.50;99.90;;;;;;2082288;28;20182;-67
2021/10/27 02:18:41;;;;;;;3.97;3.40;;;2.40;99.90;;;;;;2082259;28;20200;-67
2021/10/27 02:19:41;;;;;;;5.70;3.73;;;2.50;99.80;;;;;;2082418;28;20178;-67
2021/10/27 02:20:42;;;;;;;5.60;3.63;;;2.50;99.90;;;;;;2082379;28;20625;-67
2021/10/27 02:21:43;;;;;;;6.60;3.53;;;2.50;99.90;;;;;;2082067;28;20256;-67
2021/10/27 02:22:43;;;;;;;4.73;3.30;;;2.50;99.90;;;;;;2082366;28;20200;-67
2021/10/27 02:23:44;;;;;;;8.30;3.67;;;2.50;99.80;;;;;;2082428;28;20735;-67
2021/10/27 02:24:45;;;;;;;4.07;3.30;;;2.50;99.80;;;;;;2082205;28;20337;-67
2021/10/27 02:25:46;;;;;;;7.10;3.77;;;2.50;99.70;;;;;;2082394;28;20192;-67
2021/10/27 02:26:47;;;;;;;4.87;3.67;;;2.50;99.80;;;;;;2082228;28;20201;-67
2021/10/27 02:27:47;;;;;;;4.97;3.40;;;2.50;99.70;;;;;;2082270;28;20557;-67
2021/10/27 02:28:48;;;;;;;6.03;3.70;;;2.50;99.70;;;;;;2082367;28;20456;-67
2021/10/27 02:29:49;;;;;;;4.85;3.53;;;2.50;99.60;;;;;;2081595;28;20262;-67
2021/10/27 02:30:50;;;;;;;6.53;3.33;;;2.50;99.60;;;;;;2081608;28;20193;-67
2021/10/27 02:31:51;;;;;;;6.80;3.37;;;2.50;99.50;;;;;;2081872;28;20208;-67
2021/10/27 02:32:52;;;;;;;5.88;3.50;;;2.50;99.40;;;;;;2081677;28;20427;-67
2021/10/27 02:33:53;;;;;;;4.43;3.20;;;2.50;99.90;;;;;;2081592;28;20676;-67
2021/10/27 02:34:54;;;;;;;4.00;2.80;;;2.40;99.30;;;;;;2081967;28;20247;-67
2021/10/27 02:35:54;;;;;;;5.73;3.30;;;2.40;99.20;;;;;;2082225;28;20628;-67
2021/10/27 02:36:55;;;;;;;3.30;2.83;;;2.40;99.30;;;;;;2082191;28;20214;-67
2021/10/27 02:37:56;;;;;;;4.95;3.17;;;2.40;99.20;;;;;;2082161;28;20169;-67
2021/10/27 02:38:57;;;;;;;4.85;2.75;;;2.50;99.20;;;;;;2082270;28;20236;-67
2021/10/27 02:39:58;;;;;;;4.70;3.60;;;2.50;99.10;;;;;;2082318;28;20593;-67
2021/10/27 02:40:59;;;;;;;5.87;3.50;;;2.40;99.00;;;;;;2082253;28;20173;-67
2021/10/27 02:42:00;;;;;;;5.43;3.58;;;2.40;99.00;;;;;;2081393;28;20243;-67
2021/10/27 02:43:00;;;;;;;11.50;4.13;;;2.40;98.90;;;;;;2081459;28;20260;-67
2021/10/27 02:44:01;;;;;;;5.93;3.20;;;2.40;99.00;;;;;;2082044;28;20602;-67
2021/10/27 02:45:03;;;;;;;6.90;3.20;;;2.40;99.10;;;;;;2082211;28;20189;-67
2021/10/27 02:46:04;;;;;;;7.07;3.33;;;2.40;99.10;;;;;;2082031;28;20658;-67
2021/10/27 02:47:05;;;;;;;4.00;3.07;;;2.40;99.30;;;;;;2081930;28;20209;-67
2021/10/27 02:48:06;;;;;;;7.73;3.50;;;2.40;99.40;;;;;;2081786;28;20483;-67
2021/10/27 02:49:06;;;;;;;5.77;3.70;;;2.40;99.40;;;;;;2081991;28;20189;-67
2021/10/27 02:50:08;;;;;;;7.10;3.43;;;2.40;99.40;;;;;;2081755;28;20271;-67
2021/10/27 02:51:09;;;;;;;7.32;4.07;;;2.40;99.50;;;;;;2081548;28;20180;-67
2021/10/27 02:52:10;;;;;;;8.57;4.50;;;2.40;99.70;;;;;;2082001;28;20188;-67
2021/10/27 02:53:11;;;;;;;5.13;3.35;;;2.40;99.90;;;;;;2082249;28;20659;-67
2021/10/27 02:54:12;;;;;;;9.07;4.03;;;2.40;99.90;;;;;;2081993;28;20193;-67
2021/10/27 02:55:13;;;;;;;5.90;3.70;;;2.40;99.90;;;;;;2082102;28;20177;-67
2021/10/27 02:56:13;;;;;;;8.17;3.50;;;2.40;99.90;;;;;;2081801;28;20184;-67
2021/10/27 02:57:14;;;;;;;6.90;3.83;;;2.40;99.90;;;;;;2082135;28;20524;-67
2021/10/27 02:58:15;;;;;;;7.73;3.73;;;2.50;99.90;;;;;;2081956;28;20176;-67
2021/10/27 02:59:15;;;;;;;8.20;4.33;;;2.50;99.90;;;;;;2081936;28;20189;-67
2021/10/27 03:00:16;;;;;;;5.80;4.00;;;2.50;99.90;;;;;;2081979;28;20178;-67
2021/10/27 03:01:17;;;;;;;12.70;4.90;;;2.50;99.90;;;;;;2081771;28;20610;-67
2021/10/27 03:02:17;;;;;;;11.40;4.40;;;2.50;99.80;;;;;;2082088;28;20179;-67
2021/10/27 03:03:18;;;;;;;10.23;4.10;;;2.50;99.80;;;;;;2082534;28;20181;-67
2021/10/27 03:04:19;;;;;;;10.45;4.55;;;2.50;99.70;;;;;;2081863;28;20187;-67
2021/10/27 03:05:20;;;;;;;7.47;4.27;;;2.50;99.50;;;;;;2081866;28;20186;-67
2021/10/27 03:06:21;;;;;;;7.15;4.20;;;2.50;99.50;;;;;;2081979;28;20181;-67
2021/10/27 03:07:22;;;;;;;6.27;4.17;;;2.40;99.50;;;;;;2081964;28;20188;-67
2021/10/27 03:08:22;;;;;;;12.63;4.57;;;2.50;99.60;;;;;;2082121;28;20264;-67
2021/10/27 03:09:24;;;;;;;5.80;3.77;;;2.50;99.60;;;;;;2081911;28;20554;-67
2021/10/27 03:10:24;;;;;;;6.40;4.15;;;2.50;99.70;;;;;;2081847;28;20173;-67
2021/10/27 03:11:25;;;;;;;4.23;3.40;;;2.50;99.70;;;;;;2081693;28;20188;-67
2021/10/27 03:12:26;;;;;;;4.63;3.37;;;2.50;99.80;;;;;;2081976;28;20450;-67
2021/10/27 03:13:26;;;;;;;6.50;3.63;;;2.50;99.90;;;;;;2081830;28;20181;-67
2021/10/27 03:14:28;;;;;;;7.30;3.80;;;2.60;99.90;;;;;;2081984;28;20177;-67
2021/10/27 03:15:28;;;;;;;6.22;3.40;;;2.50;99.90;;;;;;2081710;28;20192;-67
2021/10/27 03:16:29;;;;;;;4.67;3.30;;;2.60;99.90;;;;;;2081686;28;20223;-67
2021/10/27 03:17:30;;;;;;;5.10;3.10;;;2.60;99.80;;;;;;2081793;28;20546;-67
2021/10/27 03:18:30;;;;;;;7.30;3.53;;;2.60;99.60;;;;;;2081881;28;20329;-67
2021/10/27 03:19:31;;;;;;;6.67;3.63;;;2.60;99.70;;;;;;2081754;28;20177;-67
2021/10/27 03:20:32;;;;;;;6.50;3.63;;;2.60;99.60;;;;;;2081770;28;20185;-67
2021/10/27 03:21:33;;;;;;;9.63;4.10;;;2.60;99.50;;;;;;2081662;28;20219;-67
2021/10/27 03:22:33;;;;;;;4.17;3.50;;;2.60;99.60;;;;;;2081932;28;20240;-67
2021/10/27 03:23:34;;;;;;;6.33;3.47;;;2.70;99.50;;;;;;2081836;28;20211;-67
2021/10/27 03:24:35;;;;;;;34.20;5.23;;;2.70;99.40;;;;;;2081845;28;20173;-67
2021/10/27 03:25:35;;;;;;;22.13;5.97;;;2.70;99.40;;;;;;2081711;28;20236;-67
2021/10/27 03:26:36;;;;;;;72.00;7.60;;;2.70;99.50;;;;;;2081675;28;20288;-67
2021/10/27 03:27:37;;;;;;;12.30;4.97;;;2.70;99.60;;;;;;2081781;28;20178;-67
2021/10/27 03:28:38;;;;;;;44.13;8.63;;;2.70;99.70;;;;;;2081894;28;20182;-66
2021/10/27 03:29:38;;;;;;;45.70;9.07;;;2.70;99.80;;;;;;2081768;28;20645;-67
2021/10/27 03:30:39;;;;;;;163.17;12.87;;;2.70;99.80;;;;;;2081717;28;20226;-67
2021/10/27 03:31:40;;;;;;;112.83;11.23;;;2.70;99.80;;;;;;2081297;28;20183;-66
2021/10/27 03:32:40;;;;;;;66.73;8.60;;;2.70;99.80;;;;;;2081820;28;20551;-67
2021/10/27 03:33:41;;;;;;;106.43;11.33;;;2.70;99.70;;;;;;2081785;28;20201;-66
2021/10/27 03:34:42;;;;;;;173.70;11.43;;;2.70;99.60;;;;;;2081724;28;20178;-66
2021/10/27 03:35:43;;;;;;;46.03;7.23;;;2.60;99.50;;;;;;2081626;28;20206;-67
2021/10/27 03:36:44;;;;;;;40.27;8.30;;;2.60;99.60;;;;;;2081559;28;20240;-66
2021/10/27 03:37:45;;;;;;;29.48;7.05;;;2.60;99.60;;;;;;2081793;28;20181;-66
2021/10/27 03:38:46;;;;;;;31.27;6.73;;;2.60;99.60;;;;;;2081640;28;20194;-66
2021/10/27 03:39:46;;;;;;;9.77;5.00;;;2.60;99.70;;;;;;2081768;28;20236;-66
2021/10/27 03:40:47;;;;;;;9.37;4.40;;;2.50;99.70;;;;;;2081577;28;20308;-66
2021/10/27 03:41:48;;;;;;;9.57;4.67;;;2.50;99.70;;;;;;2081428;28;20184;-67
2021/10/27 03:42:49;;;;;;;7.93;4.87;;;2.50;99.70;;;;;;2081496;28;20499;-66
2021/10/27 03:43:50;;;;;;;5.80;3.97;;;2.50;99.70;;;;;;2081594;28;20178;-67
2021/10/27 03:44:51;;;;;;;6.03;4.07;;;2.50;99.60;;;;;;2081512;28;20181;-66
2021/10/27 03:45:51;;;;;;;6.23;3.83;;;2.40;99.40;;;;;;2081518;28;20185;-66
2021/10/27 03:46:53;;;;;;;5.57;3.57;;;2.40;99.30;;;;;;2080746;28;20678;-67
2021/10/27 03:47:54;;;;;;;6.55;3.95;;;2.40;99.40;;;;;;2081643;28;20243;-66
2021/10/27 03:48:55;;;;;;;5.63;3.58;;;2.30;99.30;;;;;;2081617;28;20268;-67
2021/10/27 03:49:56;;;;;;;5.77;3.97;;;2.30;99.50;;;;;;2081571;28;20184;-67
2021/10/27 03:50:57;;;;;;;6.13;4.20;;;2.30;99.50;;;;;;2081606;28;20400;-67
2021/10/27 03:51:58;;;;;;;4.27;3.50;;;2.30;99.50;;;;;;2080907;28;20189;-67
2021/10/27 03:52:59;;;;;;;5.50;3.50;;;2.30;99.40;;;;;;2080777;28;20729;-67
2021/10/27 03:53:59;;;;;;;5.55;3.30;;;2.30;99.70;;;;;;2081551;28;20233;-67
2021/10/27 03:55:00;;;;;;;4.67;3.40;;;2.30;99.10;;;;;;2081434;28;20246;-66
2021/10/27 03:56:01;;;;;;;4.23;3.20;;;2.30;99.10;;;;;;2081564;28;20181;-66
2021/10/27 03:57:02;;;;;;;2.90;2.60;;;2.20;99.00;;;;;;2081333;28;20315;-67
2021/10/27 03:58:03;;;;;;;3.85;2.83;;;2.20;99.10;;;;;;2081582;28;20548;-67
2021/10/27 03:59:03;;;;;;;3.93;3.07;;;2.30;99.10;;;;;;2081595;28;20185;-66
2021/10/27 04:00:08;;;;;;;3.80;2.63;;;2.20;99.10;;;;;;2081684;28;20428;-67
2021/10/27 04:01:09;;;;;;;3.33;2.70;;;2.20;99.70;;;;;;2081196;28;20274;-66
2021/10/27 04:02:09;;;;;;;3.30;2.37;;;2.30;99.30;;;;;;2081589;28;20249;-66
2021/10/27 04:03:12;;;;;;;3.57;2.97;;;2.30;99.40;;;;;;2081420;28;20185;-66
2021/10/27 04:04:12;;;;;;;3.45;2.67;;;2.20;99.50;;;;;;2081458;28;20599;-66
2021/10/27 04:05:13;;;;;;;4.37;2.80;;;2.20;99.30;;;;;;2081419;28;20201;-67
2021/10/27 04:06:14;;;;;;;3.33;2.43;;;2.20;99.30;;;;;;2081463;28;20205;-67
2021/10/27 04:07:14;;;;;;;5.30;2.57;;;2.30;99.30;;;;;;2081120;28;20207;-67
2021/10/27 04:08:16;;;;;;;3.77;2.90;;;2.20;99.30;;;;;;2081492;28;20177;-66
2021/10/27 04:09:17;;;;;;;4.85;3.00;;;2.30;99.30;;;;;;2081529;28;20189;-66
2021/10/27 04:10:17;;;;;;;6.80;2.47;;;2.30;99.20;;;;;;2081545;28;20535;-66
2021/10/27 04:11:18;;;;;;;4.17;2.30;;;2.30;99.30;;;;;;2081138;28;20203;-66
2021/10/27 04:12:19;;;;;;;3.47;2.60;;;2.20;99.30;;;;;;2081486;28;20445;-66
2021/10/27 04:13:20;;;;;;;3.47;2.83;;;2.20;99.40;;;;;;2081381;28;20591;-66
2021/10/27 04:14:21;;;;;;;3.28;2.50;;;2.20;99.20;;;;;;2081456;28;20188;-66
2021/10/27 04:15:22;;;;;;;4.33;2.63;;;2.20;99.10;;;;;;2080815;28;20668;-66
2021/10/27 04:16:22;;;;;;;3.40;2.40;;;2.10;99.00;;;;;;2080670;28;20507;-66
2021/10/27 04:17:24;;;;;;;2.93;2.43;;;2.10;99.00;;;;;;2081671;28;20207;-67
2021/10/27 04:18:24;;;;;;;2.60;2.10;;;2.10;98.90;;;;;;2081464;28;20204;-66
2021/10/27 04:19:25;;;;;;;4.63;2.50;;;2.10;98.80;;;;;;2081498;28;20177;-66
2021/10/27 04:20:26;;;;;;;3.87;2.60;;;2.10;98.80;;;;;;2081338;28;20177;-67
2021/10/27 04:21:27;;;;;;;3.13;2.55;;;2.00;98.80;;;;;;2080469;28;20622;-67
2021/10/27 04:22:28;;;;;;;3.67;2.40;;;2.10;98.60;;;;;;2080731;28;20192;-66
2021/10/27 04:23:28;;;;;;;4.27;2.27;;;2.00;98.70;;;;;;2081417;28;20744;-66
2021/10/27 04:24:29;;;;;;;2.40;2.20;;;2.00;98.90;;;;;;2081315;28;20181;-66
2021/10/27 04:25:30;;;;;;;2.97;2.33;;;2.00;99.00;;;;;;2081272;28;20183;-66
2021/10/27 04:26:31;;;;;;;3.50;2.28;;;1.90;99.20;;;;;;2081221;28;20205;-66
2021/10/27 04:27:32;;;;;;;3.17;2.33;;;1.90;99.40;;;;;;2081357;28;20196;-67
2021/10/27 04:28:33;;;;;;;3.60;2.80;;;1.90;99.50;;;;;;2081117;28;20565;-67
2021/10/27 04:29:34;;;;;;;3.67;2.70;;;1.90;99.60;;;;;;2081382;28;20192;-67
2021/10/27 04:30:34;;;;;;;3.13;2.80;;;1.90;99.60;;;;;;2081138;28;20223;-67
2021/10/27 04:31:37;;;;;;;4.03;3.30;;;1.90;99.60;;;;;;2081057;28;20209;-67
2021/10/27 04:32:38;;;;;;;4.20;2.90;;;1.90;99.60;;;;;;2081257;28;20562;-66
2021/10/27 04:33:39;;;;;;;5.82;2.95;;;1.90;99.70;;;;;;2081432;28;20185;-67
2021/10/27 04:34:40;;;;;;;3.27;2.70;;;1.90;99.60;;;;;;2081234;28;20184;-67
2021/10/27 04:35:40;;;;;;;2.60;2.38;;;1.90;99.50;;;;;;2080619;28;20675;-67
2021/10/27 04:36:41;;;;;;;3.03;2.37;;;1.90;99.50;;;;;;2080591;28;20224;-67
2021/10/27 04:37:44;;;;;;;3.23;2.53;;;1.90;99.40;;;;;;2081375;28;20466;-67
2021/10/27 04:38:45;;;;;;;3.60;2.42;;;1.90;99.40;;;;;;2081327;28;20177;-67
2021/10/27 04:39:46;;;;;;;3.00;2.40;;;1.90;99.40;;;;;;2081526;28;20177;-67
2021/10/27 04:40:47;;;;;;;3.17;2.40;;;1.90;99.40;;;;;;2081229;28;20191;-67
2021/10/27 04:41:48;;;;;;;6.57;2.53;;;1.90;99.30;;;;;;2081046;28;20169;-67
2021/10/27 04:42:48;;;;;;;2.50;2.20;;;1.90;99.40;;;;;;2081226;28;20185;-67
2021/10/27 04:43:49;;;;;;;3.40;2.47;;;1.90;99.40;;;;;;2081293;28;20173;-66
2021/10/27 04:44:50;;;;;;;3.00;2.33;;;1.90;99.40;;;;;;2081380;28;20177;-67
2021/10/27 04:45:51;;;;;;;3.27;2.43;;;1.90;99.40;;;;;;2081196;28;20243;-67
2021/10/27 04:46:51;;;;;;;2.30;2.10;;;1.90;99.40;;;;;;2080990;28;20239;-67
2021/10/27 04:47:52;;;;;;;3.17;2.57;;;1.90;99.40;;;;;;2081134;28;20177;-67
2021/10/27 04:48:53;;;;;;;4.23;2.43;;;1.90;99.40;;;;;;2081163;28;20622;-66
2021/10/27 04:49:53;;;;;;;2.77;2.13;;;1.90;99.40;;;;;;2081105;28;20192;-66
2021/10/27 04:50:54;;;;;;;2.87;2.40;;;1.90;99.50;;;;;;2081156;28;20174;-67
2021/10/27 04:51:55;;;;;;;3.43;2.33;;;1.90;99.60;;;;;;2081079;28;20212;-67
2021/10/27 04:52:56;;;;;;;3.60;2.77;;;2.00;99.60;;;;;;2081253;28;20185;-67
2021/10/27 04:53:57;;;;;;;2.72;2.17;;;1.90;99.50;;;;;;2081262;28;20192;-66
2021/10/27 04:54:57;;;;;;;3.70;2.67;;;1.90;99.40;;;;;;2081218;28;20204;-66
2021/10/27 04:55:58;;;;;;;4.30;2.60;;;1.90;99.30;;;;;;2081207;28;20184;-66
2021/10/27 04:56:59;;;;;;;4.90;2.53;;;1.90;99.20;;;;;;2081061;28;20213;-66
2021/10/27 04:58:00;;;;;;;3.87;2.50;;;1.90;99.10;;;;;;2082472;28;20184;-66
2021/10/27 04:59:01;;;;;;;5.93;2.90;;;1.90;99.10;;;;;;2083841;28;20430;-66
2021/10/27 05:00:03;;;;;;;4.95;2.47;;;1.90;99.10;;;;;;2084002;28;20184;-66
2021/10/27 05:01:04;;;;;;;3.75;2.70;;;1.90;99.10;;;;;;2083738;28;20208;-66
2021/10/27 05:02:04;;;;;;;3.67;2.50;;;1.90;99.10;;;;;;2084136;28;20180;-66
2021/10/27 05:03:05;;;;;;;5.30;2.33;;;1.90;99.10;;;;;;2083833;28;20176;-66
2021/10/27 05:04:06;;;;;;;5.93;2.87;;;1.90;99.10;;;;;;2083763;28;20189;-66
2021/10/27 05:05:07;;;;;;;3.33;2.77;;;1.90;99.30;;;;;;2084044;28;20215;-66
2021/10/27 05:06:10;;;;;;;3.00;2.50;;;1.90;99.40;;;;;;2083872;28;20184;-66
2021/10/27 05:07:13;;;;;;;3.90;2.35;;;1.90;99.40;;;;;;2083972;28;20192;-66
2021/10/27 05:08:18;;;;;;;3.92;2.70;;;1.90;99.50;;;;;;2083874;28;20188;-66
2021/10/27 05:09:19;;;;;;;3.90;3.15;;;1.80;99.60;;;;;;2084018;28;20192;-66
2021/10/27 05:10:19;;;;;;;7.93;5.33;;;1.80;99.70;;;;;;2083824;28;20192;-66
2021/10/27 05:11:20;;;;;;;12.87;7.37;;;1.80;99.70;;;;;;2083729;28;20203;-66
2021/10/27 05:12:21;;;;;;;11.20;6.60;;;1.80;99.80;;;;;;2083815;28;20182;-66
2021/10/27 05:13:21;;;;;;;13.17;8.97;;;1.80;99.90;;;;;;2083971;28;20307;-66
2021/10/27 05:14:22;;;;;;;16.77;9.43;;;1.80;99.90;;;;;;2083818;28;20176;-66
2021/10/27 05:15:23;;;;;;;15.13;8.90;;;1.80;99.90;;;;;;2083961;28;20550;-66
2021/10/27 05:16:23;;;;;;;15.60;8.80;;;1.80;99.90;;;;;;2083660;28;20644;-66
2021/10/27 05:17:24;;;;;;;14.93;8.67;;;1.80;99.90;;;;;;2083921;28;20176;-66
2021/10/27 05:18:25;;;;;;;9.47;6.87;;;1.90;99.90;;;;;;2083773;28;20644;-66
2021/10/27 05:19:25;;;;;;;9.23;6.83;;;1.90;99.90;;;;;;2083855;28;20177;-66
2021/10/27 05:20:26;;;;;;;9.73;5.60;;;1.90;99.90;;;;;;2083818;28;20177;-66
2021/10/27 05:21:27;;;;;;;8.63;6.00;;;1.90;99.90;;;;;;2083701;28;20673;-66